Main page
METAR-TAF:

METAR-TAF

Airports :

Lloydminster Airport

Lloydminster, Alberta, Canada

latitude: 53-19N, longitude: 110-04W, elevation: 665 m

Current weather observation

The report was made 53 minutes ago, at 07:00 UTC
Wind 9 kt from the East/Southeast
Temperature 8°C
Humidity 49%
Pressure 1015 hPa
Visibility: 14.5 km
Clear sky

METAR: CYLL 210700Z AUTO 12009KT 9SM CLR 08/M02 A2997 RMK SLP164

Time: 01:53 (07:53 UTC)

Forecast

The report was made 2 hours and 15 minutes ago, at 05:38 UTC
Forecast valid from 21 at 06 UTC to 21 at 18 UTC
Wind 8 kt from the East/Southeast
Visibility: 10 km
Few clouds at a height of 9000 ft

TAF: CYLL 210538Z 2106/2118 12008KT P6SM FEW090 RMK FCST BASED ON AUTO OBS. NXT FCST BY 211200Z

Weather observations and forecasts of more than 4000 airports (METAR and TAF reports).

The available stations are represented by yellow and red dots on the map.

Hover mouse over dot to see the name of the station.

Then click to see weather observations and forecasts.

To change the map : click on the green buttons with a black cross to zoom in, on the green button with a dash to zoom out, or on the green arrows for adjacent maps.


METAR-TAF: